Traditional Chinese Simplified Chinese
Climatological Information for Vernal Equinox recorded at Hong Kong Observatory
dotted-line

Climatological Information for Vernal Equinox recorded at
Hong Kong Observatory
(Period: 1947 - 2017)

Go To INSECTS WAKENGo To BRIGHT CLEAR
Day
(yyyy-mm-dd)
Air Temperature Daily
Relative
Humidity
(%)
Daily
Total
Rainfall
(mm)
Daily
Total
Cloud Amount
(%)
Maximum
(Degree C)
Mean
(Degree C)
Minimum
(Degree C)
1947-03-21 23.1 19.0 15.6 81 Trace ###
1948-03-21 25.5 21.9 20.1 94 Trace ###
1949-03-21 25.0 21.6 19.4 95 - 88
1950-03-21 19.1 17.0 15.6 79 - 81
1951-03-21 19.0 17.2 15.6 97 22.9 100
1952-03-21 16.4 14.6 12.9 93 5.6 100
1953-03-21 21.3 18.2 16.2 93 0.2 72
1954-03-21 17.3 15.5 13.8 82 Trace 92
1955-03-21 23.2 21.1 19.4 94 Trace 91
1956-03-20 15.8 14.8 13.4 81 0.4 100
1957-03-21 22.9 19.6 15.4 93 - 54
1958-03-21 22.4 20.5 18.7 99 9.2 91
1959-03-21 25.3 21.0 17.4 79 - 27
1960-03-20 25.4 22.0 19.6 91 Trace 92
1961-03-21 27.5 23.9 21.7 92 0.1 87
1962-03-21 24.1 21.5 17.3 95 4.4 100
1963-03-21 22.5 20.3 19.1 90 0.7 87
1964-03-20 26.3 21.4 18.1 80 - 46
1965-03-21 20.1 18.7 17.5 86 Trace 94
1966-03-21 24.6 21.1 18.4 91 Trace 94
1967-03-21 25.1 20.4 17.3 87 - 90
1968-03-20 24.4 21.5 19.4 89 0.2 84
1969-03-21 27.2 22.0 15.0 88 0.1 76
1970-03-21 20.0 16.7 13.9 77 - 53
1971-03-21 24.8 20.4 17.0 78 - 14
1972-03-20 27.2 23.0 20.4 83 - 29
1973-03-21 26.4 22.0 19.2 82 Trace 73
1974-03-21 20.2 16.2 13.5 86 3.2 64
1975-03-21 21.2 18.8 17.6 73 Trace 74
1976-03-20 15.3 13.1 10.2 77 Trace 100
1977-03-21 23.1 20.0 18.0 71 - 79
1978-03-21 23.7 20.6 18.4 94 0.7 98
1979-03-21 19.7 17.5 14.8 78 Trace 77
1980-03-20 24.6 20.9 18.1 77 - 41
1981-03-21 23.4 21.0 18.4 81 - 43
1982-03-21 27.2 23.2 20.9 79 Trace 36
1983-03-21 23.7 21.1 19.7 97 1.0 97
1984-03-20 23.3 18.4 16.0 94 3.0 99
1985-03-21 17.6 16.4 15.3 68 - 88
1986-03-21 21.2 18.9 17.6 94 1.6 98
1987-03-21 25.4 23.5 20.9 91 14.8 90
1988-03-20 17.3 16.2 15.5 89 0.2 100
1989-03-20 21.4 20.3 19.2 88 Trace 86
1990-03-21 23.0 20.2 18.2 81 - 43
1991-03-21 25.2 23.2 20.9 88 - 86
1992-03-20 22.3 19.4 17.5 88 Trace 81
1993-03-20 15.1 13.9 12.6 87 1.1 99
1994-03-21 19.2 18.0 16.6 66 Trace 81
1995-03-21 24.5 19.7 16.4 80 - 76
1996-03-20 18.3 17.8 17.5 93 Trace 100
1997-03-20 20.0 18.6 16.4 82 7.1 95
1998-03-21 20.8 17.5 14.2 89 Trace 99
1999-03-21 21.9 19.2 15.1 93 3.5 100
2000-03-20 21.2 19.3 18.3 73 Trace 74
2001-03-20 25.4 23.0 21.3 85 0.1 92
2002-03-21 27.3 23.5 21.3 76 - 46
2003-03-21 18.7 16.8 14.7 84 0.1 86
2004-03-20 22.3 19.9 18.6 75 - 85
2005-03-20 21.8 18.8 15.6 70 - 68
2006-03-21 21.4 19.5 17.7 91 Trace 88
2007-03-21 21.2 18.5 16.7 75 - 85
2008-03-20 21.5 20.0 19.2 77 Trace 87
2009-03-20 27.4 23.9 21.8 84 - 73
2010-03-21 28.1 22.7 20.1 80 - 50
2011-03-21 27.4 22.9 20.5 90 - 60
2012-03-20 22.7 20.3 19.0 87 Trace 83
2013-03-20 28.3 25.1 23.5 81 Trace 70
2014-03-21 18.7 16.5 15.5 69 Trace 88
2015-03-21 25.5 22.9 21.0 85 - 65
2016-03-20 23.1 19.0 17.6 91 0.3 96
2017-03-20 27.1 21.9 18.6 86 Trace 61
Maximum
28.3 25.1 23.5 99 22.9 100
Minimum
15.1 13.1 10.2 66 - 14
Normals
(1961-1990)
23.1 20.0 17.6 85 1.0 75
Normals
(1971-2000)
21.9 19.3 17.1 83 1.2 77
Normals
(1981-2010)
22.2 19.7 17.8 83 1.1 81
### means data not available
Column's Maximum in light red background colour
Column's Minimum in light blue background colour